createdAt,value
2023-05-07T00:00:06.825Z,9.22
2023-05-07T00:00:36.133Z,9.22
2023-05-07T00:01:07.868Z,9.27
2023-05-07T00:01:39.971Z,9.27
2023-05-07T00:02:12.001Z,9.27
2023-05-07T00:02:43.902Z,9.38
2023-05-07T00:03:16.032Z,9.38
2023-05-07T00:03:47.882Z,9.38
2023-05-07T00:04:19.983Z,9.38
2023-05-07T00:04:52.068Z,9.38
2023-05-07T00:05:24.083Z,9.38
2023-05-07T00:05:55.656Z,9.38
2023-05-07T00:06:11.983Z,9.38
2023-05-07T00:06:55.621Z,9.50
2023-05-07T00:07:27.742Z,9.50
2023-05-07T00:07:59.867Z,9.50
2023-05-07T00:08:31.505Z,9.27
2023-05-07T00:09:04.011Z,9.38
2023-05-07T00:09:35.719Z,9.38
2023-05-07T00:10:07.952Z,9.27
2023-05-07T00:10:39.544Z,9.38
2023-05-07T00:10:55.832Z,9.38
2023-05-07T00:11:27.576Z,9.38
2023-05-07T00:12:11.654Z,9.27
2023-05-07T00:12:43.447Z,9.27
2023-05-07T00:13:15.490Z,9.27
2023-05-07T00:13:47.526Z,9.27
2023-05-07T00:14:19.309Z,9.27
2023-05-07T00:14:51.480Z,9.27
2023-05-07T00:15:23.691Z,9.27
2023-05-07T00:15:55.396Z,9.27
2023-05-07T00:16:27.441Z,9.27
2023-05-07T00:16:59.497Z,9.27
2023-05-07T00:17:31.285Z,9.27
2023-05-07T00:18:03.827Z,9.27
2023-05-07T00:18:35.349Z,9.27
2023-05-07T00:19:07.116Z,9.27
2023-05-07T00:19:39.084Z,9.27
2023-05-07T00:19:55.357Z,9.27
2023-05-07T00:20:39.298Z,9.27
2023-05-07T00:21:11.188Z,9.27
2023-05-07T00:21:43.018Z,9.22
2023-05-07T00:22:15.045Z,9.27
2023-05-07T00:22:47.080Z,9.22
2023-05-07T00:23:18.998Z,9.22
2023-05-07T00:23:51.076Z,9.11
2023-05-07T00:24:22.898Z,9.11
2023-05-07T00:24:55.099Z,9.11
2023-05-07T00:25:27.202Z,9.11
2023-05-07T00:25:58.721Z,9.11
2023-05-07T00:26:30.824Z,9.11
2023-05-07T00:27:03.839Z,9.11
2023-05-07T00:27:34.886Z,9.22
2023-05-07T00:28:07.401Z,9.22
2023-05-07T00:28:38.693Z,9.22
2023-05-07T00:29:10.715Z,9.22
2023-05-07T00:29:42.946Z,9.22
2023-05-07T00:30:15.969Z,9.22
2023-05-07T00:30:46.554Z,9.22
2023-05-07T00:31:18.738Z,9.22
2023-05-07T00:31:51.004Z,9.27
2023-05-07T00:32:22.803Z,9.27
2023-05-07T00:32:54.672Z,9.27
2023-05-07T00:33:10.685Z,9.27
2023-05-07T00:33:42.589Z,9.27
2023-05-07T00:34:26.638Z,9.27
2023-05-07T00:34:58.357Z,9.38
2023-05-07T00:35:30.742Z,9.38
2023-05-07T00:36:03.047Z,9.38
2023-05-07T00:36:34.439Z,9.38
2023-05-07T00:37:06.898Z,9.38
2023-05-07T00:37:38.205Z,9.38
2023-05-07T00:37:54.427Z,9.38
2023-05-07T00:38:38.356Z,9.38
2023-05-07T00:39:10.515Z,9.27
2023-05-07T00:39:42.231Z,9.27
2023-05-07T00:40:14.574Z,9.27
2023-05-07T00:40:46.358Z,9.27
2023-05-07T00:41:18.311Z,9.27
2023-05-07T00:41:50.306Z,9.27
2023-05-07T00:42:22.342Z,9.27
2023-05-07T00:42:54.244Z,9.27
2023-05-07T00:43:26.250Z,9.27
2023-05-07T00:43:58.060Z,9.22
2023-05-07T00:44:30.311Z,9.22
2023-05-07T00:45:05.135Z,9.22
2023-05-07T00:45:34.201Z,9.22
2023-05-07T00:46:06.226Z,9.22
2023-05-07T00:46:37.970Z,9.22
2023-05-07T00:46:54.283Z,9.22
2023-05-07T00:47:25.888Z,9.11
2023-05-07T00:47:42.289Z,9.11
2023-05-07T00:48:13.829Z,9.11
2023-05-07T00:48:46.014Z,9.11
2023-05-07T00:49:17.948Z,9.11
2023-05-07T00:49:50.029Z,9.11
2023-05-07T00:50:22.260Z,9.00
2023-05-07T00:50:53.835Z,9.00
2023-05-07T00:51:10.107Z,9.00
2023-05-07T00:51:41.962Z,9.00
2023-05-07T00:52:25.764Z,9.00
2023-05-07T00:52:57.703Z,9.11
2023-05-07T00:53:13.821Z,9.11
2023-05-07T00:53:45.725Z,9.11
2023-05-07T00:54:29.850Z,9.22
2023-05-07T00:55:02.915Z,9.11
2023-05-07T00:55:33.581Z,9.11
2023-05-07T00:56:05.938Z,9.11
2023-05-07T00:56:37.526Z,9.11
2023-05-07T00:57:10.008Z,9.22
2023-05-07T00:57:42.046Z,9.22
2023-05-07T00:58:13.512Z,9.27
2023-05-07T00:58:45.740Z,9.27
2023-05-07T00:59:17.694Z,9.27
2023-05-07T00:59:49.385Z,9.27
2023-05-07T01:00:22.059Z,9.27
2023-05-07T01:00:53.590Z,9.27
2023-05-07T01:01:25.519Z,9.27
2023-05-07T01:01:57.312Z,9.27
2023-05-07T01:02:29.334Z,9.27
2023-05-07T01:03:02.429Z,9.22
2023-05-07T01:03:33.410Z,9.22
2023-05-07T01:04:05.537Z,9.22
2023-05-07T01:04:37.404Z,9.22
2023-05-07T01:05:09.476Z,9.22
2023-05-07T01:05:41.391Z,9.11
2023-05-07T01:06:13.072Z,9.11
2023-05-07T01:06:45.383Z,9.22
2023-05-07T01:07:17.291Z,9.22
2023-05-07T01:07:49.182Z,9.22
2023-05-07T01:08:21.313Z,9.22
2023-05-07T01:08:52.974Z,9.22
2023-05-07T01:09:09.217Z,9.22
2023-05-07T01:09:40.977Z,9.22
2023-05-07T01:10:25.361Z,9.22
2023-05-07T01:10:57.003Z,9.22
2023-05-07T01:11:28.805Z,9.22
2023-05-07T01:12:01.312Z,9.22
2023-05-07T01:12:33.063Z,9.22
2023-05-07T01:13:04.834Z,9.22
2023-05-07T01:13:21.419Z,9.22
2023-05-07T01:13:52.969Z,9.22
2023-05-07T01:14:08.939Z,9.22
2023-05-07T01:14:40.864Z,9.22
2023-05-07T01:15:14.109Z,9.22
2023-05-07T01:15:44.945Z,9.22
2023-05-07T01:16:16.659Z,9.22
2023-05-07T01:16:48.776Z,9.22
2023-05-07T01:17:20.737Z,9.11
2023-05-07T01:17:52.831Z,9.11
2023-05-07T01:18:09.191Z,9.11
2023-05-07T01:18:53.465Z,9.11
2023-05-07T01:19:24.948Z,9.22
2023-05-07T01:19:56.501Z,9.11
2023-05-07T01:20:28.924Z,9.22
2023-05-07T01:21:00.656Z,9.11
2023-05-07T01:21:32.653Z,9.11
2023-05-07T01:22:05.089Z,9.22
2023-05-07T01:22:36.681Z,9.11
2023-05-07T01:23:08.539Z,9.11
2023-05-07T01:23:40.695Z,9.11
2023-05-07T01:24:12.672Z,9.11
2023-05-07T01:24:44.760Z,9.11
2023-05-07T01:25:16.754Z,9.11
2023-05-07T01:25:48.441Z,9.11
2023-05-07T01:26:20.228Z,9.11
2023-05-07T01:26:52.428Z,9.11
2023-05-07T01:27:08.332Z,9.11
2023-05-07T01:27:40.166Z,9.11
2023-05-07T01:28:24.336Z,9.11
2023-05-07T01:28:56.265Z,9.11
2023-05-07T01:29:28.208Z,9.11
2023-05-07T01:30:00.701Z,9.11
2023-05-07T01:30:32.378Z,9.22
2023-05-07T01:31:05.007Z,9.22
2023-05-07T01:31:36.388Z,9.22
2023-05-07T01:31:52.463Z,9.22
2023-05-07T01:32:36.280Z,9.22
2023-05-07T01:33:08.052Z,9.22
2023-05-07T01:33:24.239Z,9.22
2023-05-07T01:33:56.223Z,9.22
2023-05-07T01:34:40.004Z,9.11
2023-05-07T01:35:12.449Z,9.11
2023-05-07T01:35:44.091Z,9.11
2023-05-07T01:36:16.038Z,9.11
2023-05-07T01:36:48.119Z,9.11
2023-05-07T01:37:20.154Z,9.11
2023-05-07T01:37:52.263Z,9.11
2023-05-07T01:38:23.825Z,9.11
2023-05-07T01:38:39.990Z,9.11
2023-05-07T01:39:11.932Z,9.11
2023-05-07T01:39:55.915Z,9.11
2023-05-07T01:40:28.133Z,9.11
2023-05-07T01:40:59.731Z,9.11
2023-05-07T01:41:31.796Z,9.11
2023-05-07T01:42:04.140Z,9.11
2023-05-07T01:42:35.857Z,9.11
2023-05-07T01:43:07.734Z,9.11
2023-05-07T01:43:23.782Z,9.11
2023-05-07T01:44:07.728Z,9.11
2023-05-07T01:44:39.682Z,9.11
2023-05-07T01:45:13.274Z,9.11
2023-05-07T01:45:43.786Z,9.11
2023-05-07T01:46:15.767Z,9.11
2023-05-07T01:46:47.711Z,9.11
2023-05-07T01:47:19.508Z,9.11
2023-05-07T01:47:51.503Z,9.11
2023-05-07T01:48:07.968Z,9.11
2023-05-07T01:48:39.377Z,9.11
2023-05-07T01:49:23.370Z,9.11
2023-05-07T01:49:55.223Z,9.11
2023-05-07T01:50:27.662Z,9.22
2023-05-07T01:50:59.298Z,9.22
2023-05-07T01:51:31.466Z,9.22
2023-05-07T01:52:03.993Z,9.22
2023-05-07T01:52:35.321Z,9.22
2023-05-07T01:52:51.502Z,9.22
2023-05-07T01:53:35.327Z,9.22
2023-05-07T01:54:07.466Z,9.22
2023-05-07T01:54:39.189Z,9.22
2023-05-07T01:55:11.401Z,9.22
2023-05-07T01:55:43.230Z,9.22
2023-05-07T01:56:15.250Z,9.22
2023-05-07T01:56:47.190Z,9.22
2023-05-07T01:57:19.032Z,9.22
2023-05-07T01:57:51.185Z,9.22
2023-05-07T01:58:23.140Z,9.22
2023-05-07T01:58:55.010Z,9.22
2023-05-07T01:59:27.107Z,9.22
2023-05-07T01:59:59.028Z,9.22
2023-05-07T02:00:31.731Z,9.22
2023-05-07T02:01:04.200Z,9.22
2023-05-07T02:01:35.014Z,9.00
2023-05-07T02:01:51.125Z,9.00
2023-05-07T02:02:22.990Z,9.11
2023-05-07T02:02:38.932Z,9.11
2023-05-07T02:03:11.782Z,9.00
2023-05-07T02:03:43.030Z,9.00
2023-05-07T02:04:14.890Z,9.00
2023-05-07T02:04:46.964Z,9.00
2023-05-07T02:05:18.909Z,9.00
2023-05-07T02:05:50.712Z,9.00
2023-05-07T02:06:06.997Z,9.00
2023-05-07T02:06:38.530Z,9.00
2023-05-07T02:07:22.775Z,9.00
2023-05-07T02:07:54.485Z,9.00
2023-05-07T02:08:10.625Z,9.00
2023-05-07T02:08:42.797Z,9.00
2023-05-07T02:09:26.736Z,9.00
2023-05-07T02:09:58.716Z,9.00
2023-05-07T02:10:30.828Z,9.00
2023-05-07T02:10:46.748Z,9.00
2023-05-07T02:11:30.441Z,9.00
2023-05-07T02:12:02.976Z,9.00
2023-05-07T02:12:34.500Z,9.00
2023-05-07T02:13:06.661Z,9.00
2023-05-07T02:13:22.642Z,9.00
2023-05-07T02:13:54.332Z,9.00
2023-05-07T02:14:38.372Z,9.00
2023-05-07T02:15:11.755Z,9.00
2023-05-07T02:15:42.444Z,9.00
2023-05-07T02:16:14.592Z,9.00
2023-05-07T02:16:46.464Z,9.00
2023-05-07T02:17:18.186Z,9.00
2023-05-07T02:17:50.253Z,9.00
2023-05-07T02:18:06.738Z,9.00
2023-05-07T02:18:50.213Z,9.00
2023-05-07T02:19:22.268Z,9.11
2023-05-07T02:19:54.004Z,9.11
2023-05-07T02:20:26.597Z,9.11
2023-05-07T02:20:58.026Z,9.11
2023-05-07T02:21:31.296Z,9.11
2023-05-07T02:22:02.699Z,9.00
2023-05-07T02:22:34.071Z,9.00
2023-05-07T02:22:50.212Z,9.00
2023-05-07T02:23:21.992Z,9.00
2023-05-07T02:23:38.157Z,9.00
2023-05-07T02:24:09.789Z,9.00
2023-05-07T02:24:41.874Z,8.88
2023-05-07T02:25:14.211Z,8.88
2023-05-07T02:25:45.996Z,8.88
2023-05-07T02:26:17.719Z,8.88
2023-05-07T02:26:49.805Z,8.88
2023-05-07T02:27:05.870Z,9.00
2023-05-07T02:27:37.905Z,9.00
2023-05-07T02:28:21.850Z,9.00
2023-05-07T02:28:53.626Z,9.00
2023-05-07T02:29:26.437Z,9.00
2023-05-07T02:29:57.767Z,9.00
2023-05-07T02:30:30.189Z,9.00
2023-05-07T02:31:02.164Z,9.00
2023-05-07T02:31:33.642Z,9.00
2023-05-07T02:31:49.838Z,9.00
2023-05-07T02:32:33.693Z,9.00
2023-05-07T02:33:05.868Z,9.00
2023-05-07T02:33:37.731Z,9.00
2023-05-07T02:34:09.542Z,9.00
2023-05-07T02:34:41.638Z,9.00
2023-05-07T02:35:13.983Z,9.00
2023-05-07T02:35:45.295Z,8.88
2023-05-07T02:36:17.438Z,8.88
2023-05-07T02:36:49.510Z,8.88
2023-05-07T02:37:21.486Z,8.88
2023-05-07T02:37:53.568Z,8.88
2023-05-07T02:38:25.315Z,8.88
2023-05-07T02:38:57.297Z,9.00
2023-05-07T02:39:29.364Z,9.00
2023-05-07T02:40:02.126Z,8.88
2023-05-07T02:40:33.217Z,8.88
2023-05-07T02:40:49.569Z,8.88
2023-05-07T02:41:21.206Z,8.88
2023-05-07T02:41:37.407Z,8.88
2023-05-07T02:42:09.264Z,8.88
2023-05-07T02:42:41.194Z,8.88
2023-05-07T02:43:13.223Z,8.88
2023-05-07T02:43:45.199Z,8.88
2023-05-07T02:44:17.272Z,8.88
2023-05-07T02:44:49.042Z,8.88
2023-05-07T02:45:07.392Z,8.88
2023-05-07T02:45:37.159Z,8.88
2023-05-07T02:46:21.164Z,8.88
2023-05-07T02:46:53.169Z,8.88
2023-05-07T02:47:25.005Z,8.88
2023-05-07T02:47:57.320Z,8.88
2023-05-07T02:48:28.993Z,8.88
2023-05-07T02:49:01.204Z,8.88
2023-05-07T02:49:32.915Z,8.88
2023-05-07T02:49:49.108Z,8.88
2023-05-07T02:50:33.095Z,8.88
2023-05-07T02:51:05.165Z,8.88
2023-05-07T02:51:37.010Z,8.88
2023-05-07T02:52:08.752Z,8.88
2023-05-07T02:52:40.754Z,8.77
2023-05-07T02:53:12.756Z,8.77
2023-05-07T02:53:44.738Z,8.77
2023-05-07T02:54:16.780Z,8.77
2023-05-07T02:54:48.736Z,8.77
2023-05-07T02:55:21.012Z,8.77
2023-05-07T02:55:52.800Z,8.77
2023-05-07T02:56:24.486Z,8.77
2023-05-07T02:56:56.776Z,8.77
2023-05-07T02:57:28.734Z,8.72
2023-05-07T02:58:00.789Z,8.72
2023-05-07T02:58:32.698Z,8.72
2023-05-07T02:59:05.129Z,8.72
2023-05-07T02:59:36.554Z,8.72
2023-05-07T03:00:09.087Z,8.72
2023-05-07T03:00:40.365Z,8.72
2023-05-07T03:01:12.616Z,8.72
2023-05-07T03:01:44.603Z,8.72
2023-05-07T03:02:16.478Z,8.72
2023-05-07T03:02:48.252Z,8.72
2023-05-07T03:03:05.058Z,8.72
2023-05-07T03:03:36.266Z,8.72
2023-05-07T03:04:20.403Z,8.72
2023-05-07T03:04:52.463Z,8.72
2023-05-07T03:05:24.480Z,8.72
2023-05-07T03:05:56.303Z,8.72
2023-05-07T03:06:29.009Z,8.72
2023-05-07T03:07:01.255Z,8.72
2023-05-07T03:07:33.506Z,8.72
2023-05-07T03:08:06.823Z,8.72
2023-05-07T03:08:37.585Z,8.72
2023-05-07T03:09:08.903Z,8.88
2023-05-07T03:09:40.138Z,8.72
2023-05-07T03:10:12.605Z,8.72
2023-05-07T03:10:44.101Z,8.72
2023-05-07T03:11:16.015Z,8.72
2023-05-07T03:11:48.030Z,8.72
2023-05-07T03:12:04.135Z,8.72
2023-05-07T03:12:48.113Z,8.72
2023-05-07T03:13:20.090Z,8.72
2023-05-07T03:13:51.896Z,8.72
2023-05-07T03:14:23.946Z,8.72
2023-05-07T03:14:55.866Z,8.72
2023-05-07T03:15:28.367Z,8.61
2023-05-07T03:15:59.837Z,8.61
2023-05-07T03:16:32.245Z,8.61
2023-05-07T03:16:48.128Z,8.61
2023-05-07T03:17:19.657Z,8.61
2023-05-07T03:17:35.964Z,8.61
2023-05-07T03:18:07.910Z,8.61
2023-05-07T03:18:39.588Z,8.61
2023-05-07T03:19:11.900Z,8.61
2023-05-07T03:19:43.866Z,8.50
2023-05-07T03:20:16.214Z,8.50
2023-05-07T03:20:47.779Z,8.50
2023-05-07T03:21:04.297Z,8.50
2023-05-07T03:21:35.602Z,8.50
2023-05-07T03:22:19.613Z,8.72
2023-05-07T03:22:51.589Z,8.72
2023-05-07T03:23:24.840Z,8.72
2023-05-07T03:23:55.594Z,8.72
2023-05-07T03:24:27.533Z,8.72
2023-05-07T03:24:59.407Z,8.72
2023-05-07T03:25:31.746Z,8.72
2023-05-07T03:25:47.758Z,8.72
2023-05-07T03:26:31.694Z,8.72
2023-05-07T03:27:04.395Z,8.72
2023-05-07T03:27:35.174Z,8.72
2023-05-07T03:28:07.319Z,8.61
2023-05-07T03:28:39.345Z,8.61
2023-05-07T03:29:11.563Z,8.61
2023-05-07T03:29:43.104Z,8.61
2023-05-07T03:30:16.253Z,8.61
2023-05-07T03:30:47.308Z,8.72
2023-05-07T03:31:19.174Z,8.72
2023-05-07T03:31:51.308Z,8.72
2023-05-07T03:32:23.076Z,8.61
2023-05-07T03:32:55.034Z,8.61
2023-05-07T03:33:27.290Z,8.61
2023-05-07T03:33:58.972Z,8.61
2023-05-07T03:34:30.939Z,8.61
2023-05-07T03:34:47.321Z,8.61
2023-05-07T03:35:19.158Z,8.50
2023-05-07T03:35:35.180Z,8.50
2023-05-07T03:36:06.864Z,8.50
2023-05-07T03:36:38.979Z,8.50
2023-05-07T03:37:11.061Z,8.50
2023-05-07T03:37:42.961Z,8.50
2023-05-07T03:38:14.854Z,8.50
2023-05-07T03:38:46.984Z,8.50
2023-05-07T03:39:03.977Z,8.50
2023-05-07T03:39:34.779Z,8.50
2023-05-07T03:40:19.055Z,8.50
2023-05-07T03:40:50.865Z,8.50
2023-05-07T03:41:22.908Z,8.50
2023-05-07T03:41:54.641Z,8.50
2023-05-07T03:42:26.882Z,8.50
2023-05-07T03:42:58.581Z,8.38
2023-05-07T03:43:30.599Z,8.38
2023-05-07T03:43:46.945Z,8.38
2023-05-07T03:44:30.586Z,8.38
2023-05-07T03:45:05.752Z,8.38
2023-05-07T03:45:34.388Z,8.38
2023-05-07T03:46:06.660Z,8.38
2023-05-07T03:46:38.595Z,8.38
2023-05-07T03:47:10.469Z,8.38
2023-05-07T03:47:42.854Z,8.38
2023-05-07T03:48:14.627Z,8.38
2023-05-07T03:48:46.523Z,8.38
2023-05-07T03:49:18.521Z,8.38
2023-05-07T03:49:50.250Z,8.27
2023-05-07T03:50:22.549Z,8.27
2023-05-07T03:50:54.407Z,8.27
2023-05-07T03:51:26.540Z,8.27
2023-05-07T03:51:58.462Z,8.27
2023-05-07T03:52:30.261Z,8.27
2023-05-07T03:53:03.185Z,8.27
2023-05-07T03:53:34.181Z,8.27
2023-05-07T03:54:06.238Z,8.27
2023-05-07T03:54:38.214Z,8.27
2023-05-07T03:55:10.392Z,8.27
2023-05-07T03:55:42.383Z,8.27
2023-05-07T03:56:14.076Z,8.27
2023-05-07T03:56:46.097Z,8.27
2023-05-07T03:57:03.182Z,8.27
2023-05-07T03:57:33.992Z,8.27
2023-05-07T03:58:18.463Z,8.27
2023-05-07T03:58:49.863Z,8.27
2023-05-07T03:59:22.095Z,8.27
2023-05-07T03:59:54.237Z,8.27
2023-05-07T04:00:26.572Z,8.27
2023-05-07T04:00:58.153Z,8.27
2023-05-07T04:01:30.059Z,8.27
2023-05-07T04:01:46.208Z,8.27
2023-05-07T04:02:30.188Z,8.27
2023-05-07T04:03:03.064Z,8.22
2023-05-07T04:03:34.172Z,8.22
2023-05-07T04:04:06.061Z,8.22
2023-05-07T04:04:37.995Z,8.22
2023-05-07T04:05:10.234Z,8.22
2023-05-07T04:05:41.972Z,8.22
2023-05-07T04:06:13.922Z,8.11
2023-05-07T04:06:45.930Z,8.11
2023-05-07T04:07:18.052Z,8.11
2023-05-07T04:07:49.600Z,8.11
2023-05-07T04:08:21.899Z,8.11
2023-05-07T04:08:53.945Z,8.11
2023-05-07T04:09:25.738Z,8.11
2023-05-07T04:09:57.901Z,8.11
2023-05-07T04:10:29.980Z,8.11
2023-05-07T04:10:46.000Z,8.11
2023-05-07T04:11:17.735Z,8.11
2023-05-07T04:11:33.863Z,8.11
2023-05-07T04:12:05.786Z,8.11
2023-05-07T04:12:37.640Z,8.11
2023-05-07T04:13:09.681Z,8.00
2023-05-07T04:13:41.849Z,8.00
2023-05-07T04:14:13.549Z,8.00
2023-05-07T04:14:45.590Z,8.00
2023-05-07T04:15:04.386Z,8.00
2023-05-07T04:15:33.745Z,8.00
2023-05-07T04:16:17.625Z,8.00
2023-05-07T04:16:49.290Z,8.00
2023-05-07T04:17:21.597Z,8.00
2023-05-07T04:17:53.450Z,8.00
2023-05-07T04:18:25.337Z,8.00
2023-05-07T04:18:57.741Z,8.11
2023-05-07T04:19:29.331Z,8.11
2023-05-07T04:19:45.422Z,8.11
2023-05-07T04:20:29.684Z,8.11
2023-05-07T04:21:01.998Z,8.11
2023-05-07T04:21:33.290Z,8.11
2023-05-07T04:22:05.482Z,8.11
2023-05-07T04:22:37.286Z,8.11
2023-05-07T04:23:09.289Z,8.11
2023-05-07T04:23:40.999Z,8.22
2023-05-07T04:24:13.319Z,8.22
2023-05-07T04:24:45.312Z,8.22
2023-05-07T04:25:17.423Z,8.22
2023-05-07T04:25:33.285Z,8.22
2023-05-07T04:26:05.204Z,8.22
2023-05-07T04:26:49.057Z,8.22
2023-05-07T04:27:21.149Z,8.22
2023-05-07T04:27:53.058Z,8.22
2023-05-07T04:28:24.997Z,8.22
2023-05-07T04:28:57.101Z,8.22
2023-05-07T04:29:28.981Z,8.22
2023-05-07T04:30:03.368Z,8.11
2023-05-07T04:30:17.727Z,8.00
2023-05-07T04:31:00.934Z,8.00
2023-05-07T04:31:17.075Z,8.00
2023-05-07T04:32:00.850Z,8.00
2023-05-07T04:32:33.134Z,8.11
2023-05-07T04:33:05.164Z,8.11
2023-05-07T04:33:36.845Z,8.11
2023-05-07T04:34:08.793Z,8.11
2023-05-07T04:34:40.755Z,8.11
2023-05-07T04:35:13.167Z,8.11
2023-05-07T04:35:44.894Z,8.11
2023-05-07T04:36:00.884Z,8.11
2023-05-07T04:36:32.789Z,8.22
2023-05-07T04:37:16.721Z,8.22
2023-05-07T04:37:48.541Z,8.22
2023-05-07T04:38:20.473Z,8.22
2023-05-07T04:38:52.552Z,8.22
2023-05-07T04:39:24.505Z,8.22
2023-05-07T04:39:56.378Z,8.22
2023-05-07T04:40:28.769Z,8.27
2023-05-07T04:40:44.872Z,8.27
2023-05-07T04:41:28.484Z,8.27
2023-05-07T04:42:00.698Z,8.27
2023-05-07T04:42:32.549Z,8.27
2023-05-07T04:43:04.980Z,8.27
2023-05-07T04:43:36.636Z,8.27
2023-05-07T04:44:08.466Z,8.27
2023-05-07T04:44:40.210Z,8.27
2023-05-07T04:45:13.677Z,8.27
2023-05-07T04:45:44.406Z,8.27
2023-05-07T04:46:16.499Z,8.27
2023-05-07T04:46:48.238Z,8.27
2023-05-07T04:47:20.014Z,8.27
2023-05-07T04:47:52.406Z,8.27
2023-05-07T04:48:24.125Z,8.27
2023-05-07T04:48:55.976Z,8.27
2023-05-07T04:49:28.220Z,8.22
2023-05-07T04:49:44.403Z,8.22
2023-05-07T04:50:16.533Z,8.22
2023-05-07T04:50:32.309Z,8.22
2023-05-07T04:51:04.886Z,8.22
2023-05-07T04:51:36.115Z,8.22
2023-05-07T04:52:07.967Z,8.22
2023-05-07T04:52:40.051Z,8.22
2023-05-07T04:53:12.137Z,8.22
2023-05-07T04:53:43.928Z,8.22
2023-05-07T04:54:16.066Z,8.22
2023-05-07T04:54:47.930Z,8.22
2023-05-07T04:55:20.182Z,8.22
2023-05-07T04:55:51.926Z,8.22
2023-05-07T04:56:23.892Z,8.22
2023-05-07T04:56:55.856Z,8.27
2023-05-07T04:57:28.109Z,8.27
2023-05-07T04:57:43.985Z,8.27
2023-05-07T04:58:27.782Z,8.27
2023-05-07T04:58:43.892Z,8.27
2023-05-07T04:59:27.995Z,8.27
2023-05-07T04:59:59.788Z,8.27
2023-05-07T05:00:32.215Z,8.27
2023-05-07T05:01:04.511Z,8.27
2023-05-07T05:01:35.937Z,8.27
2023-05-07T05:02:07.877Z,8.27
2023-05-07T05:02:39.781Z,8.27
2023-05-07T05:03:11.711Z,8.27
2023-05-07T05:03:43.777Z,8.38
2023-05-07T05:04:15.770Z,8.38
2023-05-07T05:04:47.412Z,8.38
2023-05-07T05:05:19.643Z,8.38
2023-05-07T05:05:51.649Z,8.38
2023-05-07T05:06:23.471Z,8.50
2023-05-07T05:06:56.175Z,8.50
2023-05-07T05:07:27.459Z,8.50
2023-05-07T05:07:43.698Z,8.50
2023-05-07T05:08:15.330Z,8.50
2023-05-07T05:08:31.582Z,8.50
2023-05-07T05:09:04.170Z,8.50
2023-05-07T05:09:35.080Z,8.50
2023-05-07T05:10:07.660Z,8.50
2023-05-07T05:10:39.345Z,8.50
2023-05-07T05:11:11.093Z,8.50
2023-05-07T05:11:43.475Z,8.61
2023-05-07T05:11:59.193Z,8.61
2023-05-07T05:12:31.111Z,8.61
2023-05-07T05:13:15.353Z,8.61
2023-05-07T05:13:46.938Z,8.72
2023-05-07T05:14:18.990Z,8.72
2023-05-07T05:14:51.035Z,8.72
2023-05-07T05:15:23.441Z,8.72
2023-05-07T05:15:54.942Z,8.72
2023-05-07T05:16:27.065Z,8.72
2023-05-07T05:16:59.754Z,8.72
2023-05-07T05:17:31.080Z,8.72
2023-05-07T05:18:03.822Z,8.72
2023-05-07T05:18:18.926Z,8.50
2023-05-07T05:18:51.065Z,8.72
2023-05-07T05:19:34.808Z,8.50
2023-05-07T05:20:07.219Z,8.50
2023-05-07T05:20:38.757Z,8.50
2023-05-07T05:21:10.705Z,8.50
2023-05-07T05:21:42.935Z,8.50
2023-05-07T05:22:15.034Z,8.50
2023-05-07T05:22:46.558Z,8.61
2023-05-07T05:23:18.750Z,8.61
2023-05-07T05:23:50.839Z,8.61
2023-05-07T05:24:22.883Z,8.72
2023-05-07T05:24:54.542Z,8.72
2023-05-07T05:25:26.944Z,8.88
2023-05-07T05:25:42.957Z,8.88
2023-05-07T05:26:14.417Z,9.00
2023-05-07T05:26:30.757Z,9.00
2023-05-07T05:27:03.322Z,9.11
2023-05-07T05:27:34.472Z,9.22
2023-05-07T05:28:06.604Z,9.22
2023-05-07T05:28:38.599Z,9.22
2023-05-07T05:29:10.315Z,9.27
2023-05-07T05:29:42.667Z,9.27
2023-05-07T05:29:58.625Z,9.22
2023-05-07T05:30:30.682Z,9.27
2023-05-07T05:31:17.003Z,9.38
2023-05-07T05:31:46.336Z,9.50
2023-05-07T05:32:18.402Z,9.61
2023-05-07T05:32:50.265Z,9.72
2023-05-07T05:33:22.398Z,10.11
2023-05-07T05:33:54.379Z,10.22
2023-05-07T05:34:26.130Z,10.27
2023-05-07T05:34:58.342Z,10.27
2023-05-07T05:35:30.503Z,10.38
2023-05-07T05:36:02.642Z,10.22
2023-05-07T05:36:34.169Z,10.22
2023-05-07T05:37:06.189Z,10.22
2023-05-07T05:37:38.114Z,10.22
2023-05-07T05:38:10.072Z,10.27
2023-05-07T05:38:42.265Z,10.27
2023-05-07T05:39:14.125Z,10.72
2023-05-07T05:39:46.178Z,10.72
2023-05-07T05:40:18.340Z,10.50
2023-05-07T05:40:49.890Z,10.77
2023-05-07T05:41:22.145Z,10.72
2023-05-07T05:41:53.901Z,10.61
2023-05-07T05:42:25.941Z,10.72
2023-05-07T05:42:42.249Z,10.72
2023-05-07T05:43:14.099Z,10.72
2023-05-07T05:43:30.002Z,10.72
2023-05-07T05:44:02.619Z,10.72
2023-05-07T05:44:34.098Z,10.72
2023-05-07T05:45:07.926Z,10.72
2023-05-07T05:45:37.883Z,10.72
2023-05-07T05:46:09.680Z,10.77
2023-05-07T05:46:41.775Z,10.77
2023-05-07T05:47:14.002Z,10.88
2023-05-07T05:47:45.637Z,11.11
2023-05-07T05:48:17.850Z,11.00
2023-05-07T05:48:49.767Z,11.11
2023-05-07T05:49:21.870Z,11.22
2023-05-07T05:49:53.514Z,11.11
2023-05-07T05:50:25.815Z,11.22
2023-05-07T05:50:57.616Z,11.50
2023-05-07T05:51:29.384Z,11.50
2023-05-07T05:52:02.176Z,11.38
2023-05-07T05:52:33.605Z,11.61
2023-05-07T05:53:05.657Z,11.61
2023-05-07T05:53:37.353Z,11.61
2023-05-07T05:54:09.434Z,11.38
2023-05-07T05:54:41.388Z,11.27
2023-05-07T05:55:13.827Z,11.50
2023-05-07T05:55:45.362Z,11.27
2023-05-07T05:56:17.214Z,11.27
2023-05-07T05:56:49.415Z,11.22
2023-05-07T05:57:21.714Z,11.22
2023-05-07T05:57:53.153Z,11.38
2023-05-07T05:58:25.227Z,11.22
2023-05-07T05:58:57.428Z,10.77
2023-05-07T05:59:29.250Z,11.38
2023-05-07T06:00:06.333Z,11.22
2023-05-07T06:00:33.115Z,11.61
2023-05-07T06:01:05.388Z,11.27
2023-05-07T06:01:37.349Z,11.27
2023-05-07T06:02:09.246Z,11.38
2023-05-07T06:02:41.371Z,11.50
2023-05-07T06:03:14.406Z,11.61
2023-05-07T06:03:45.253Z,11.72
2023-05-07T06:04:17.326Z,11.38
2023-05-07T06:04:49.332Z,10.77
2023-05-07T06:05:23.415Z,11.27
2023-05-07T06:05:53.464Z,11.38
2023-05-07T06:06:25.232Z,11.00
2023-05-07T06:06:57.070Z,11.00
2023-05-07T06:07:29.222Z,11.00
2023-05-07T06:08:02.088Z,11.00
2023-05-07T06:08:33.184Z,10.88
2023-05-07T06:09:05.447Z,10.88
2023-05-07T06:09:37.062Z,10.72
2023-05-07T06:10:09.069Z,10.88
2023-05-07T06:10:41.035Z,10.77
2023-05-07T06:11:13.252Z,10.88
2023-05-07T06:11:44.727Z,10.77
2023-05-07T06:12:16.861Z,10.50
2023-05-07T06:12:48.970Z,10.77
2023-05-07T06:13:20.942Z,11.00
2023-05-07T06:13:52.997Z,10.77
2023-05-07T06:14:24.740Z,10.88
2023-05-07T06:14:56.760Z,10.88
2023-05-07T06:15:29.337Z,10.88
2023-05-07T06:16:00.850Z,10.88
2023-05-07T06:16:32.771Z,11.11
2023-05-07T06:17:05.086Z,11.00
2023-05-07T06:17:36.781Z,11.00
2023-05-07T06:18:08.704Z,11.00
2023-05-07T06:18:40.737Z,10.77
2023-05-07T06:18:56.703Z,11.11
2023-05-07T06:19:28.681Z,11.27
2023-05-07T06:20:13.329Z,11.27
2023-05-07T06:20:44.518Z,11.00
2023-05-07T06:21:16.746Z,11.22
2023-05-07T06:21:48.562Z,11.22
2023-05-07T06:22:20.478Z,11.38
2023-05-07T06:22:52.524Z,11.22
2023-05-07T06:23:08.593Z,11.22
2023-05-07T06:23:40.810Z,11.00
2023-05-07T06:23:56.172Z,11.00
2023-05-07T06:24:28.244Z,11.22
2023-05-07T06:25:00.593Z,11.27
2023-05-07T06:25:32.404Z,11.27
2023-05-07T06:26:04.926Z,11.38
2023-05-07T06:26:36.288Z,11.38
2023-05-07T06:27:10.289Z,11.11
2023-05-07T06:27:42.377Z,11.11
2023-05-07T06:28:12.536Z,11.11
2023-05-07T06:28:44.197Z,11.22
2023-05-07T06:29:16.209Z,11.00
2023-05-07T06:29:48.235Z,11.11
2023-05-07T06:30:20.525Z,11.38
2023-05-07T06:30:52.159Z,11.22
2023-05-07T06:31:24.206Z,11.22
2023-05-07T06:31:56.150Z,11.22
2023-05-07T06:32:28.293Z,11.50
2023-05-07T06:33:00.102Z,11.61
2023-05-07T06:33:32.182Z,11.61
2023-05-07T06:34:04.625Z,11.38
2023-05-07T06:34:35.795Z,11.38
2023-05-07T06:35:09.319Z,11.22
2023-05-07T06:35:39.992Z,11.50
2023-05-07T06:36:12.036Z,11.61
2023-05-07T06:36:43.824Z,11.27
2023-05-07T06:37:15.801Z,11.38
2023-05-07T06:37:47.835Z,12.00
2023-05-07T06:38:19.626Z,11.77
2023-05-07T06:38:51.744Z,11.77
2023-05-07T06:39:23.679Z,11.77
2023-05-07T06:39:56.616Z,11.72
2023-05-07T06:40:28.324Z,11.77
2023-05-07T06:41:02.365Z,11.72
2023-05-07T06:41:31.717Z,11.50
2023-05-07T06:42:04.536Z,11.72
2023-05-07T06:42:35.632Z,11.72
2023-05-07T06:43:07.570Z,11.77
2023-05-07T06:43:39.691Z,11.50
2023-05-07T06:44:11.719Z,11.27
2023-05-07T06:44:43.626Z,11.61
2023-05-07T06:45:16.772Z,11.38
2023-05-07T06:45:47.661Z,11.72
2023-05-07T06:46:21.686Z,11.88
2023-05-07T06:46:51.601Z,11.77
2023-05-07T06:47:23.566Z,11.77
2023-05-07T06:47:39.256Z,11.61
2023-05-07T06:48:11.211Z,11.72
2023-05-07T06:48:27.756Z,11.88
2023-05-07T06:48:59.474Z,11.88
2023-05-07T06:49:31.492Z,11.88
2023-05-07T06:50:06.964Z,11.88
2023-05-07T06:50:35.272Z,11.88
2023-05-07T06:51:07.322Z,11.88
2023-05-07T06:51:39.940Z,11.61
2023-05-07T06:51:55.383Z,11.88